AU-0071 weather

Sherlock Ultralight Airfield
Sherlock, South Australia, Australia

Public forecast

Using degrees Celsius for public forecast. Weather courtesy of forecast.io.

Closest aviation weather report (METAR) to Sherlock Ultralight Airfield

Closest report is Adelaide International Airport, 65.9 nm (122.1 km) WNW. Retrieved 2020/01/26 05:30 UTC (0 seconds ago):

YPAD 260530Z 23013KT 9999 FEW028 SCT300 22/15 Q1014 NOSIG

Closest aviation forecast (TAF) to Sherlock Ultralight Airfield

Closest forecast is Adelaide International Airport, 65.9 nm (122.1 km) WNW. Retrieved 2020-01-26 00:00 UTC (5 hours ago):

TAF YPAD 252312Z 2600/2706 23007KT 9999 SCT025 FM260400 20014KT CAVOK FM261000 16010KT CAVOK FM261500 VRB05KT 9999 FEW020 FM270000 22010KT CAVOK